Map

Track Data

SID SEASON NUMBER BASIN SUBBASIN NAME ISO_TIME NATURE LAT LON WMO_WIND WMO_PRES WMO_AGENCY TRACK_TYPE DIST2LAND LANDFALL IFLAG USA_AGENCY USA_ATCF_ID USA_LAT USA_LON USA_RECORD USA_STATUS USA_WIND USA_PRES USA_SSHS USA_R34_NE USA_R34_SE USA_R34_SW USA_R34_NW USA_R50_NE USA_R50_SE USA_R50_SW USA_R50_NW USA_R64_NE USA_R64_SE USA_R64_SW USA_R64_NW USA_POCI USA_ROCI USA_RMW USA_EYE TOKYO_LAT TOKYO_LON TOKYO_GRADE TOKYO_WIND TOKYO_PRES TOKYO_R50_DIR TOKYO_R50_LONG TOKYO_R50_SHORT TOKYO_R30_DIR TOKYO_R30_LONG TOKYO_R30_SHORT TOKYO_LAND CMA_LAT CMA_LON CMA_CAT CMA_WIND CMA_PRES HKO_LAT HKO_LON HKO_CAT HKO_WIND HKO_PRES NEWDELHI_LAT NEWDELHI_LON NEWDELHI_GRADE NEWDELHI_WIND NEWDELHI_PRES NEWDELHI_CI NEWDELHI_DP NEWDELHI_POCI REUNION_LAT REUNION_LON REUNION_TYPE REUNION_WIND REUNION_PRES REUNION_TNUM REUNION_CI REUNION_RMW REUNION_R34_NE REUNION_R34_SE REUNION_R34_SW REUNION_R34_NW REUNION_R50_NE REUNION_R50_SE REUNION_R50_SW REUNION_R50_NW REUNION_R64_NE REUNION_R64_SE REUNION_R64_SW REUNION_R64_NW BOM_LAT BOM_LON BOM_TYPE BOM_WIND BOM_PRES BOM_TNUM BOM_CI BOM_RMW BOM_R34_NE BOM_R34_SE BOM_R34_SW BOM_R34_NW BOM_R50_NE BOM_R50_SE BOM_R50_SW BOM_R50_NW BOM_R64_NE BOM_R64_SE BOM_R64_SW BOM_R64_NW BOM_ROCI BOM_POCI BOM_EYE BOM_POS_METHOD BOM_PRES_METHOD NADI_LAT NADI_LON NADI_CAT NADI_WIND NADI_PRES WELLINGTON_LAT WELLINGTON_LON WELLINGTON_WIND WELLINGTON_PRES DS824_LAT DS824_LON DS824_STAGE DS824_WIND DS824_PRES TD9636_LAT TD9636_LON TD9636_STAGE TD9636_WIND TD9636_PRES TD9635_LAT TD9635_LON TD9635_WIND TD9635_PRES TD9635_ROCI NEUMANN_LAT NEUMANN_LON NEUMANN_CLASS NEUMANN_WIND NEUMANN_PRES MLC_LAT MLC_LON MLC_CLASS MLC_WIND MLC_PRES USA_GUST BOM_GUST BOM_GUST_PER REUNION_GUST REUNION_GUST_PER USA_SEAHGT USA_SEARAD_NE USA_SEARAD_SE USA_SEARAD_SW USA_SEARAD_NW STORM_SPEED STORM_DIR
1972098N09091 1972 31 NI BB NOT_NAMED 1972-04-07 03:00:00 NR 9.00000 90.9000 main 608 608 __________O___ -1 9.00000 90.9000 1 3 322
1972098N09091 1972 31 NI BB NOT_NAMED 1972-04-07 06:00:00 TS 9.11716 90.8125 main 624 624 O________OP___ jtwc_io IO011972 9.10000 90.8000 -1 9.10000 90.8000 TC 9.13433 90.8250 1 3 326
1972098N09091 1972 31 NI BB NOT_NAMED 1972-04-07 09:00:00 TS 9.26355 90.7143 main 646 646 P________PP___ IO011972 9.26251 90.6950 -1 9.26251 90.6950 TC 9.26493 90.7400 1 3 325
1972098N09091 1972 31 NI BB NOT_NAMED 1972-04-07 12:00:00 TS 9.39523 90.6140 main 662 662 O________OP___ jtwc_io IO011972 9.40000 90.6000 -1 9.40000 90.6000 TC 9.38807 90.6350 1 3 319
1972098N09091 1972 31 NI BB NOT_NAMED 1972-04-07 15:00:00 TS 9.49999 90.5100 main 678 678 P________PO___ IO011972 9.49998 90.5150 -1 9.49998 90.5150 TC 9.50000 90.5000 2 3 311
1972098N09091 1972 31 NI BB NOT_NAMED 1972-04-07 18:00:00 TS 9.60076 90.3773 main 693 693 O________OP___ jtwc_io IO011972 9.60000 90.4000 -1 9.60000 90.4000 TC 9.60227 90.3320 2 4 305
1972098N09091 1972 31 NI BB NOT_NAMED 1972-04-07 21:00:00 TS 9.72423 90.1801 main 717 717 P________PP___ IO011972 9.72754 90.1925 -1 9.72754 90.1925 TC 9.71762 90.1552 2 5 308
1972098N09091 1972 31 NI BB NOT_NAMED 1972-04-08 00:00:00 TS 9.89138 90.0003 main 748 748 O________OP___ jtwc_io IO011972 9.90000 90.0000 -1 9.90000 90.0000 TC 9.87414 90.0008 2 5 325
1972098N09091 1972 31 NI BB NOT_NAMED 1972-04-08 03:00:00 TS 10.1033 89.9083 main 771 771 P________PO___ IO011972 10.1050 89.9125 -1 10.1050 89.9125 TC 10.1000 89.9000 2 5 349
1972098N09091 1972 31 NI BB NOT_NAMED 1972-04-08 06:00:00 TS 10.4121 89.8948 main 776 742 O________OP___ jtwc_io IO011972 10.4000 89.9000 -1 10.4000 89.9000 TC 10.4362 89.8843 2 7 1
1972098N09091 1972 31 NI BB NOT_NAMED 1972-04-08 09:00:00 TS 10.8317 89.9266 main 742 692 P________PP___ IO011972 10.8275 89.9275 -1 10.8275 89.9275 TC 10.8400 89.9248 2 9 7
1972098N09091 1972 31 NI BB NOT_NAMED 1972-04-08 12:00:00 TS 11.2913 90.0010 main 692 653 O________OP___ jtwc_io IO011972 11.3000 90.0000 -1 11.3000 90.0000 TC 11.2738 90.0030 2 9 11
1972098N09091 1972 31 NI BB NOT_NAMED 1972-04-08 15:00:00 TS 11.7100 90.0950 main 653 613 P________PO___ IO011972 11.7150 90.0925 -1 11.7150 90.0925 TC 11.7000 90.1000 4 8 13
1972098N09091 1972 31 NI BB NOT_NAMED 1972-04-08 18:00:00 TS 12.0908 90.1965 main 613 582 O________OP___ jtwc_io IO011972 12.1000 90.2000 -1 12.1000 90.2000 TC 12.0725 90.1896 4 8 15
1972098N09091 1972 31 NI BB NOT_NAMED 1972-04-08 21:00:00 TS 12.4533 90.2975 main 574 544 P________PP___ IO011972 12.4650 90.3000 -1 12.4650 90.3000 TC 12.4300 90.2924 4 7 16
1972098N09091 1972 31 NI BB NOT_NAMED 1972-04-09 00:00:00 TS 12.7908 90.3997 main 544 513 O________OP___ jtwc_io IO011972 12.8000 90.4000 XX 60 -5 12.8000 90.4000 TC 60 12.7725 90.3990 4 7 17
1972098N09091 1972 31 NI BB NOT_NAMED 1972-04-09 03:00:00 TS 13.1050 90.5050 main 513 484 P________PO___ IO011972 13.1075 90.5075 XX 67 -5 13.1075 90.5075 TC 67 13.1000 90.5000 4 7 17
1972098N09091 1972 31 NI BB NOT_NAMED 1972-04-09 06:00:00 TS 13.4088 90.5968 main 484 455 O________OP___ jtwc_io IO011972 13.4000 90.6000 XX 75 -5 13.4000 90.6000 TC 75 13.4265 90.5903 4 6 14
1972098N09091 1972 31 NI BB NOT_NAMED 1972-04-09 09:00:00 TS 13.7175 90.6625 main 455 437 P________PP___ IO011972 13.7075 90.6575 XX 80 -5 13.7075 90.6575 TC 80 13.7375 90.6725 4 6 11
1972098N09091 1972 31 NI BB NOT_NAMED 1972-04-09 12:00:00 TS 14.0099 90.7145 main 437 411 O________OP___ jtwc_io IO011972 14.0000 90.7000 XX 85 -5 14.0000 90.7000 TC 85 14.0297 90.7434 4 6 11
1972098N09091 1972 31 NI BB NOT_NAMED 1972-04-09 15:00:00 TS 14.2717 90.7667 main 411 401 P________PO___ IO011972 14.2575 90.7500 XX 75 -5 14.2575 90.7500 TC 75 14.3000 90.8000 4 5 11
1972098N09091 1972 31 NI BB NOT_NAMED 1972-04-09 18:00:00 TS 14.5128 90.8145 main 401 382 O________OP___ jtwc_io IO011972 14.5000 90.8000 XX 65 -5 14.5000 90.8000 TC 65 14.5384 90.8435 4 5 11
1972098N09091 1972 31 NI BB NOT_NAMED 1972-04-09 21:00:00 TS 14.7525 90.8625 main 378 371 P________PP___ IO011972 14.7500 90.8575 XX 62 -5 14.7500 90.8575 TC 62 14.7575 90.8726 4 5 9
1972098N09091 1972 31 NI BB NOT_NAMED 1972-04-10 00:00:00 TS 14.9909 90.8968 main 371 364 O________OP___ jtwc_io IO011972 15.0000 90.9000 XX 60 -5 15.0000 90.9000 TC 60 14.9728 90.8904 4 5 5
1972098N09091 1972 31 NI BB NOT_NAMED 1972-04-10 03:00:00 TS 15.2333 90.9050 main 364 357 P________PO___ IO011972 15.2500 90.9075 XX 57 -5 15.2500 90.9075 TC 57 15.2000 90.9000 2 5 357
1972098N09091 1972 31 NI BB NOT_NAMED 1972-04-10 06:00:00 TS 15.4909 90.8863 main 357 354 O________OP___ jtwc_io IO011972 15.5000 90.9000 XX 55 -5 15.5000 90.9000 TC 55 15.4727 90.8589 2 5 356
1972098N09091 1972 31 NI BB NOT_NAMED 1972-04-10 09:00:00 TS 15.7524 90.8678 main 353 352 P________PP___ IO011972 15.7500 90.8925 XX 55 -5 15.7500 90.8925 TC 55 15.7572 90.8182 2 5 359
1972098N09091 1972 31 NI BB NOT_NAMED 1972-04-10 12:00:00 TS 16.0127 90.8728 main 352 352 O________OP___ jtwc_io IO011972 16.0000 90.9000 XX 55 -5 16.0000 90.9000 TC 55 16.0382 90.8183 2 5 4
1972098N09091 1972 31 NI BB NOT_NAMED 1972-04-10 15:00:00 TS 16.2716 90.8984 main 354 344 P________PO___ IO011972 16.2574 90.8976 XX 55 -5 16.2574 90.8976 TC 55 16.3000 90.9000 2 5 18
1972098N09091 1972 31 NI BB NOT_NAMED 1972-04-10 18:00:00 TS 16.5124 91.0369 main 346 319 O________OP___ jtwc_io IO011972 16.5000 91.0000 XX 55 -5 16.5000 91.0000 TC 55 16.5311 91.0922 2 6 43
1972098N09091 1972 31 NI BB NOT_NAMED 1972-04-10 21:00:00 TS 16.7212 91.3284 main 319 280 P________PP___ IO011972 16.7103 91.2923 XX 52 -5 16.7103 91.2923 TC 52 16.7358 91.3765 2 8 58
1972098N09091 1972 31 NI BB NOT_NAMED 1972-04-11 00:00:00 TS 16.9113 91.7113 main 280 243 O________OP___ jtwc_io IO011972 16.9000 91.7000 XX 50 -5 16.9000 91.7000 TC 50 16.9226 91.7226 2 8 63
1972098N09091 1972 31 NI BB NOT_NAMED 1972-04-11 03:00:00 NR 17.1000 92.1000 main 243 __________O___ IO011972 XX -5 TC 17.1000 92.1000 6 8 63

About IBTrACS Database

This database is a web-friendly format of International Best Track Archive for Climate Stewardship (IBTrACS), a global best track data archive curated by NOAA dating back to 1842.

Updated: 2021-10-21